createdAt,value
2018-08-06T00:00:31.290Z,1.03
2018-08-06T00:02:58.850Z,1.17
2018-08-06T00:05:26.547Z,1.20
2018-08-06T00:07:54.107Z,1.27
2018-08-06T00:10:23.750Z,1.30
2018-08-06T00:12:51.422Z,0.90
2018-08-06T00:15:19.077Z,1.20
2018-08-06T00:17:46.662Z,1.40
2018-08-06T00:20:14.863Z,1.03
2018-08-06T00:22:42.779Z,1.80
2018-08-06T00:25:11.774Z,1.20
2018-08-06T00:27:40.047Z,1.50
2018-08-06T00:30:09.230Z,1.03
2018-08-06T00:32:37.394Z,1.20
2018-08-06T00:35:05.204Z,1.27
2018-08-06T00:37:32.769Z,1.30
2018-08-06T00:40:00.374Z,1.10
2018-08-06T00:42:27.982Z,2.07
2018-08-06T00:44:55.586Z,1.40
2018-08-06T00:47:23.218Z,1.10
2018-08-06T00:49:50.859Z,0.80
2018-08-06T00:52:18.451Z,1.00
2018-08-06T00:54:46.015Z,1.20
2018-08-06T00:57:14.605Z,1.00
2018-08-06T00:59:42.198Z,1.20
2018-08-06T01:02:09.790Z,1.30
2018-08-06T01:04:37.442Z,1.50
2018-08-06T01:07:05.215Z,1.40
2018-08-06T01:09:32.808Z,1.17
2018-08-06T01:12:00.428Z,1.40
2018-08-06T01:14:27.955Z,1.37
2018-08-06T01:16:55.614Z,1.30
2018-08-06T01:19:23.221Z,1.07
2018-08-06T01:21:50.790Z,1.03
2018-08-06T01:24:18.452Z,1.30
2018-08-06T01:26:45.974Z,1.17
2018-08-06T01:29:13.591Z,1.80
2018-08-06T01:31:41.198Z,1.80
2018-08-06T01:34:08.888Z,1.13
2018-08-06T01:36:36.504Z,1.17
2018-08-06T01:39:07.290Z,1.90
2018-08-06T01:41:34.867Z,1.10
2018-08-06T01:44:02.858Z,1.20
2018-08-06T01:46:30.526Z,2.77
2018-08-06T01:48:58.187Z,1.30
2018-08-06T01:51:25.834Z,1.77
2018-08-06T01:53:53.414Z,1.23
2018-08-06T01:56:21.010Z,1.53
2018-08-06T01:58:48.707Z,1.10
2018-08-06T02:01:16.419Z,1.20
2018-08-06T02:03:43.974Z,1.50
2018-08-06T02:06:11.555Z,1.30
2018-08-06T02:08:39.143Z,1.50
2018-08-06T02:11:06.694Z,1.37
2018-08-06T02:13:34.323Z,1.17
2018-08-06T02:16:01.987Z,1.53
2018-08-06T02:18:29.674Z,1.30
2018-08-06T02:20:57.289Z,1.80
2018-08-06T02:23:24.967Z,1.53
2018-08-06T02:25:52.662Z,1.60
2018-08-06T02:28:20.227Z,1.10
2018-08-06T02:30:47.838Z,1.30
2018-08-06T02:33:15.492Z,1.30
2018-08-06T02:35:43.083Z,1.73
2018-08-06T02:38:10.657Z,2.00
2018-08-06T02:40:38.287Z,1.30
2018-08-06T02:43:06.358Z,1.47
2018-08-06T02:45:34.003Z,1.53
2018-08-06T02:48:01.598Z,1.30
2018-08-06T02:50:29.216Z,1.57
2018-08-06T02:52:56.946Z,1.17
2018-08-06T02:55:24.522Z,1.13
2018-08-06T02:57:56.003Z,1.90
2018-08-06T03:00:26.947Z,1.40
2018-08-06T03:02:54.595Z,1.07
2018-08-06T03:05:23.128Z,1.57
2018-08-06T03:07:50.820Z,1.20
2018-08-06T03:10:18.462Z,1.20
2018-08-06T03:12:46.670Z,1.37
2018-08-06T03:15:14.346Z,1.33
2018-08-06T03:17:42.062Z,1.50
2018-08-06T03:20:11.047Z,1.53
2018-08-06T03:22:38.966Z,1.37
2018-08-06T03:25:07.430Z,1.80
2018-08-06T03:27:35.007Z,1.80
2018-08-06T03:30:02.678Z,1.30
2018-08-06T03:32:30.266Z,1.40
2018-08-06T03:34:57.920Z,2.00
2018-08-06T03:37:25.538Z,1.43
2018-08-06T03:39:53.222Z,1.90
2018-08-06T03:42:20.842Z,1.43
2018-08-06T03:44:49.402Z,1.50
2018-08-06T03:47:16.986Z,2.03
2018-08-06T03:49:44.629Z,1.80
2018-08-06T03:52:12.266Z,1.63
2018-08-06T03:54:39.813Z,1.47
2018-08-06T03:57:07.436Z,1.60
2018-08-06T03:59:35.137Z,1.63
2018-08-06T04:02:02.759Z,1.50
2018-08-06T04:04:30.398Z,1.93
2018-08-06T04:06:58.086Z,1.53
2018-08-06T04:09:25.706Z,2.20
2018-08-06T04:11:53.290Z,2.00
2018-08-06T04:14:20.943Z,1.50
2018-08-06T04:16:48.510Z,2.13
2018-08-06T04:19:16.210Z,1.90
2018-08-06T04:21:43.918Z,1.70
2018-08-06T04:24:14.746Z,2.07
2018-08-06T04:26:42.414Z,2.10
2018-08-06T04:29:10.170Z,1.93
2018-08-06T04:31:37.702Z,1.77
2018-08-06T04:34:05.446Z,2.10
2018-08-06T04:36:33.799Z,2.70
2018-08-06T04:39:01.407Z,1.80
2018-08-06T04:41:29.107Z,1.97
2018-08-06T04:43:56.755Z,2.40
2018-08-06T04:46:24.448Z,2.13
2018-08-06T04:48:52.076Z,2.00
2018-08-06T04:51:20.407Z,2.00
2018-08-06T04:53:49.166Z,2.67
2018-08-06T04:56:16.792Z,1.90
2018-08-06T04:58:44.438Z,2.03
2018-08-06T05:01:12.095Z,2.27
2018-08-06T05:03:39.725Z,1.90
2018-08-06T05:06:07.286Z,2.20
2018-08-06T05:08:35.059Z,2.17
2018-08-06T05:11:02.870Z,1.77
2018-08-06T05:13:30.521Z,2.30
2018-08-06T05:15:58.150Z,2.30
2018-08-06T05:18:29.162Z,2.07
2018-08-06T05:20:56.735Z,2.10
2018-08-06T05:24:00.125Z,1.93
2018-08-06T05:26:28.814Z,2.17
2018-08-06T05:28:56.443Z,1.80
2018-08-06T05:31:26.090Z,2.10
2018-08-06T05:33:54.479Z,1.70
2018-08-06T05:36:22.638Z,1.90
2018-08-06T05:38:51.198Z,1.60
2018-08-06T05:41:19.110Z,1.90
2018-08-06T05:43:46.671Z,2.10
2018-08-06T05:46:14.259Z,2.20
2018-08-06T05:48:41.806Z,1.90
2018-08-06T05:51:09.842Z,1.73
2018-08-06T05:53:37.602Z,1.77
2018-08-06T05:56:06.118Z,1.80
2018-08-06T05:58:33.710Z,1.80
2018-08-06T06:01:01.410Z,1.77
2018-08-06T06:03:29.019Z,1.50
2018-08-06T06:05:56.582Z,1.70
2018-08-06T06:09:27.397Z,2.07
2018-08-06T06:11:55.146Z,1.70
2018-08-06T06:14:22.770Z,1.90
2018-08-06T06:16:50.519Z,2.13
2018-08-06T06:19:18.321Z,1.90
2018-08-06T06:21:45.838Z,1.80
2018-08-06T06:24:13.439Z,1.33
2018-08-06T06:26:40.999Z,2.10
2018-08-06T06:29:08.602Z,1.57
2018-08-06T06:31:36.288Z,1.70
2018-08-06T06:34:03.982Z,1.53
2018-08-06T06:36:31.599Z,2.07
2018-08-06T06:38:59.306Z,1.80
2018-08-06T06:41:26.942Z,1.90
2018-08-06T06:43:54.543Z,1.57
2018-08-06T06:46:22.091Z,1.80
2018-08-06T06:48:49.720Z,1.20
2018-08-06T06:51:17.350Z,1.93
2018-08-06T06:53:44.946Z,2.00
2018-08-06T06:56:12.554Z,2.67
2018-08-06T06:58:40.190Z,2.23
2018-08-06T07:01:07.764Z,2.30
2018-08-06T07:03:35.370Z,1.53
2018-08-06T07:06:03.084Z,2.53
2018-08-06T07:08:30.665Z,2.17
2018-08-06T07:10:58.288Z,1.80
2018-08-06T07:13:25.948Z,2.67
2018-08-06T07:15:53.610Z,2.30
2018-08-06T07:18:21.280Z,3.73
2018-08-06T07:20:48.948Z,2.40
2018-08-06T07:23:16.551Z,1.70
2018-08-06T07:25:45.210Z,2.10
2018-08-06T07:28:12.840Z,1.70
2018-08-06T07:30:40.479Z,2.00
2018-08-06T07:33:08.102Z,1.80
2018-08-06T07:35:35.671Z,1.70
2018-08-06T07:38:03.308Z,2.10
2018-08-06T07:40:30.911Z,2.27
2018-08-06T07:42:58.535Z,1.97
2018-08-06T07:45:26.171Z,2.40
2018-08-06T07:47:53.762Z,2.20
2018-08-06T07:50:21.370Z,2.20
2018-08-06T07:52:48.953Z,2.00
2018-08-06T07:55:16.655Z,1.93
2018-08-06T07:57:44.322Z,1.77
2018-08-06T08:00:14.527Z,1.93
2018-08-06T08:02:42.394Z,1.77
2018-08-06T08:05:11.794Z,1.83
2018-08-06T08:07:39.874Z,1.83
2018-08-06T08:10:11.004Z,1.97
2018-08-06T08:12:38.565Z,2.30
2018-08-06T08:15:09.450Z,1.70
2018-08-06T08:17:37.056Z,2.10
2018-08-06T08:20:07.633Z,1.83
2018-08-06T08:22:35.266Z,1.90
2018-08-06T08:25:02.934Z,2.00
2018-08-06T08:27:30.550Z,1.90
2018-08-06T08:29:58.098Z,1.90
2018-08-06T08:32:25.683Z,1.57
2018-08-06T08:34:53.258Z,1.70
2018-08-06T08:37:20.852Z,1.43
2018-08-06T08:39:48.496Z,2.00
2018-08-06T08:42:16.080Z,1.87
2018-08-06T08:44:43.682Z,1.80
2018-08-06T08:47:11.359Z,1.97
2018-08-06T08:49:39.010Z,2.07
2018-08-06T08:52:06.618Z,1.80
2018-08-06T08:54:34.330Z,2.43
2018-08-06T08:57:01.996Z,1.83
2018-08-06T08:59:29.719Z,1.80
2018-08-06T09:01:57.318Z,1.70
2018-08-06T09:04:25.051Z,1.30
2018-08-06T09:06:52.630Z,1.57
2018-08-06T09:09:20.166Z,2.30
2018-08-06T09:11:47.854Z,1.63
2018-08-06T09:14:15.470Z,1.70
2018-08-06T09:16:43.151Z,2.23
2018-08-06T09:19:10.750Z,1.63
2018-08-06T09:21:38.350Z,2.03
2018-08-06T09:24:05.959Z,1.80
2018-08-06T09:26:33.581Z,1.77
2018-08-06T09:29:01.142Z,2.30
2018-08-06T09:31:28.707Z,1.80
2018-08-06T09:33:56.323Z,1.93
2018-08-06T09:36:23.929Z,1.60
2018-08-06T09:38:51.559Z,1.93
2018-08-06T09:41:19.239Z,2.50
2018-08-06T09:43:46.850Z,2.20
2018-08-06T09:46:14.431Z,2.03
2018-08-06T09:48:42.142Z,2.00
2018-08-06T09:51:09.694Z,2.10
2018-08-06T09:53:37.418Z,2.07
2018-08-06T09:56:05.099Z,1.80
2018-08-06T09:58:32.766Z,2.43
2018-08-06T10:01:05.906Z,2.30
2018-08-06T10:03:33.526Z,1.97
2018-08-06T10:06:01.204Z,2.03
2018-08-06T10:08:28.663Z,2.20
2018-08-06T10:10:56.262Z,1.90
2018-08-06T10:13:23.874Z,1.80
2018-08-06T10:15:52.314Z,2.10
2018-08-06T10:18:19.926Z,2.37
2018-08-06T10:20:47.462Z,2.10
2018-08-06T10:23:15.035Z,1.87
2018-08-06T10:25:42.698Z,1.90
2018-08-06T10:28:10.318Z,1.77
2018-08-06T10:30:37.890Z,1.97
2018-08-06T10:33:05.450Z,2.03
2018-08-06T10:35:32.963Z,2.43
2018-08-06T10:38:00.598Z,1.77
2018-08-06T10:40:28.306Z,2.40
2018-08-06T10:42:55.966Z,1.90
2018-08-06T10:46:26.822Z,1.93
2018-08-06T10:48:54.454Z,2.07
2018-08-06T10:51:22.011Z,2.00
2018-08-06T10:53:49.600Z,1.80
2018-08-06T10:56:17.189Z,2.27
2018-08-06T10:58:44.842Z,2.13
2018-08-06T11:01:12.398Z,2.80
2018-08-06T11:03:39.994Z,2.40
2018-08-06T11:06:07.599Z,2.00
2018-08-06T11:08:35.196Z,2.60
2018-08-06T11:11:02.721Z,2.40
2018-08-06T11:13:30.250Z,2.40
2018-08-06T11:15:57.906Z,2.50
2018-08-06T11:18:25.519Z,2.37
2018-08-06T11:20:53.155Z,2.37
2018-08-06T11:23:20.743Z,2.00
2018-08-06T11:25:48.398Z,3.67
2018-08-06T11:28:15.971Z,2.10
2018-08-06T11:30:43.601Z,2.50
2018-08-06T11:33:11.279Z,2.40
2018-08-06T11:35:38.891Z,2.30
2018-08-06T11:38:06.467Z,2.70
2018-08-06T11:40:34.214Z,2.50
2018-08-06T11:43:01.806Z,2.57
2018-08-06T11:45:29.371Z,2.20
2018-08-06T11:47:56.995Z,2.20
2018-08-06T11:50:24.618Z,2.20
2018-08-06T11:52:52.226Z,2.97
2018-08-06T11:55:19.713Z,2.57
2018-08-06T11:57:47.353Z,2.00
2018-08-06T12:00:17.459Z,2.90
2018-08-06T12:02:45.227Z,2.60
2018-08-06T12:05:12.805Z,2.50
2018-08-06T12:07:40.598Z,2.40
2018-08-06T12:10:11.312Z,2.87
2018-08-06T12:12:39.326Z,2.57
2018-08-06T12:15:07.717Z,2.40
2018-08-06T12:17:39.962Z,3.40
2018-08-06T12:20:10.935Z,2.50
2018-08-06T12:22:39.622Z,2.73
2018-08-06T12:25:09.622Z,2.50
2018-08-06T12:27:37.288Z,2.40
2018-08-06T12:30:09.409Z,2.83
2018-08-06T12:32:37.214Z,3.17
2018-08-06T12:35:05.378Z,2.80
2018-08-06T12:37:32.983Z,2.70
2018-08-06T12:40:00.562Z,2.40
2018-08-06T12:42:28.298Z,2.47
2018-08-06T12:44:55.990Z,2.57
2018-08-06T12:47:23.598Z,2.30
2018-08-06T12:49:51.135Z,2.90
2018-08-06T12:52:18.731Z,2.57
2018-08-06T12:54:46.426Z,2.80
2018-08-06T12:57:14.051Z,2.90
2018-08-06T12:59:41.596Z,2.50
2018-08-06T13:02:09.171Z,2.70
2018-08-06T13:04:36.774Z,2.83
2018-08-06T13:07:04.537Z,2.57
2018-08-06T13:09:32.102Z,3.00
2018-08-06T13:11:59.698Z,2.90
2018-08-06T13:14:27.247Z,3.13
2018-08-06T13:16:55.168Z,2.40
2018-08-06T13:19:22.651Z,3.20
2018-08-06T13:21:50.150Z,2.90
2018-08-06T13:24:17.672Z,3.90
2018-08-06T13:26:45.311Z,3.13
2018-08-06T13:29:13.094Z,3.10
2018-08-06T13:31:40.670Z,3.00
2018-08-06T13:34:08.262Z,2.90
2018-08-06T13:36:35.710Z,3.00
2018-08-06T13:39:05.666Z,3.00
2018-08-06T13:41:33.286Z,2.90
2018-08-06T13:44:00.886Z,3.50
2018-08-06T13:46:28.402Z,3.30
2018-08-06T13:48:56.010Z,3.20
2018-08-06T13:51:23.604Z,3.10
2018-08-06T13:53:51.156Z,3.07
2018-08-06T13:56:18.674Z,3.53
2018-08-06T13:58:46.264Z,2.60
2018-08-06T14:01:13.878Z,3.00
2018-08-06T14:03:41.399Z,3.23
2018-08-06T14:06:08.934Z,2.70
2018-08-06T14:08:36.506Z,2.90
2018-08-06T14:11:04.032Z,3.37
2018-08-06T14:13:31.632Z,3.57
2018-08-06T14:15:59.234Z,2.97
2018-08-06T14:18:26.830Z,3.10
2018-08-06T14:20:54.438Z,3.57
2018-08-06T14:23:21.993Z,3.60
2018-08-06T14:25:49.585Z,3.50
2018-08-06T14:28:17.202Z,2.77
2018-08-06T14:30:44.787Z,3.70
2018-08-06T14:33:12.434Z,3.03
2018-08-06T14:35:39.927Z,3.30
2018-08-06T14:38:07.479Z,3.40
2018-08-06T14:40:35.048Z,3.33
2018-08-06T14:43:02.662Z,3.33
2018-08-06T14:45:30.188Z,3.27
2018-08-06T14:47:57.750Z,3.93
2018-08-06T14:50:25.410Z,8.60
2018-08-06T14:52:56.280Z,3.27
2018-08-06T14:55:23.820Z,3.50
2018-08-06T14:57:51.446Z,3.03
2018-08-06T15:00:20.269Z,3.90
2018-08-06T15:02:48.635Z,4.07
2018-08-06T15:05:16.273Z,4.40
2018-08-06T15:07:43.862Z,4.10
2018-08-06T15:10:12.839Z,4.60
2018-08-06T15:12:40.605Z,4.00
2018-08-06T15:15:09.118Z,3.67
2018-08-06T15:17:36.755Z,4.50
2018-08-06T15:20:06.853Z,4.10
2018-08-06T15:22:34.522Z,4.20
2018-08-06T15:25:02.135Z,4.10
2018-08-06T15:27:29.675Z,4.00
2018-08-06T15:29:57.180Z,4.20
2018-08-06T15:32:24.790Z,4.23
2018-08-06T15:34:55.794Z,4.33
2018-08-06T15:37:23.410Z,4.43
2018-08-06T15:39:50.946Z,4.33
2018-08-06T15:42:18.518Z,5.20
2018-08-06T15:44:46.014Z,4.33
2018-08-06T15:47:13.623Z,5.30
2018-08-06T15:49:41.174Z,6.10
2018-08-06T15:52:08.786Z,5.37
2018-08-06T15:54:36.310Z,5.10
2018-08-06T15:57:07.218Z,4.83
2018-08-06T15:59:34.858Z,5.00
2018-08-06T16:02:02.514Z,4.43
2018-08-06T16:04:30.150Z,5.10
2018-08-06T16:06:58.542Z,4.60
2018-08-06T16:09:26.121Z,5.03
2018-08-06T16:11:53.666Z,5.30
2018-08-06T16:14:21.302Z,4.87
2018-08-06T16:16:48.886Z,10.23
2018-08-06T16:19:16.519Z,6.27
2018-08-06T16:21:44.171Z,5.00
2018-08-06T16:24:11.802Z,5.30
2018-08-06T16:26:42.682Z,4.40
2018-08-06T16:29:10.412Z,4.70
2018-08-06T16:31:38.122Z,4.00
2018-08-06T16:34:05.758Z,5.60
2018-08-06T16:36:34.454Z,4.93
2018-08-06T16:39:02.167Z,5.07
2018-08-06T16:41:29.730Z,4.13
2018-08-06T16:43:57.238Z,4.80
2018-08-06T16:46:25.114Z,4.30
2018-08-06T16:48:52.922Z,4.70
2018-08-06T16:51:20.625Z,4.77
2018-08-06T16:53:48.298Z,4.70
2018-08-06T16:56:15.959Z,4.23
2018-08-06T16:58:47.630Z,5.40
2018-08-06T17:01:15.294Z,4.40
2018-08-06T17:03:43.010Z,4.70
2018-08-06T17:06:10.628Z,4.83
2018-08-06T17:08:38.347Z,5.10
2018-08-06T17:11:06.037Z,3.90
2018-08-06T17:13:33.743Z,5.03
2018-08-06T17:16:01.532Z,4.30
2018-08-06T17:18:29.162Z,4.37
2018-08-06T17:20:57.474Z,5.00
2018-08-06T17:23:25.124Z,4.67
2018-08-06T17:25:52.702Z,4.80
2018-08-06T17:28:23.763Z,4.83
2018-08-06T17:30:51.334Z,4.60
2018-08-06T17:33:18.998Z,4.27
2018-08-06T17:35:46.602Z,4.90
2018-08-06T17:38:14.204Z,5.33
2018-08-06T17:40:41.798Z,4.70
2018-08-06T17:43:09.357Z,4.50
2018-08-06T17:45:36.998Z,4.00
2018-08-06T17:48:05.214Z,4.57
2018-08-06T17:50:32.746Z,4.30
2018-08-06T17:53:00.365Z,4.40
2018-08-06T17:55:28.211Z,5.20
2018-08-06T17:57:55.851Z,4.70
2018-08-06T18:00:23.523Z,4.70
2018-08-06T18:02:51.267Z,4.60
2018-08-06T18:05:18.974Z,4.80
2018-08-06T18:07:46.582Z,4.50
2018-08-06T18:10:15.407Z,4.57
2018-08-06T18:12:43.706Z,5.43
2018-08-06T18:15:11.339Z,5.90
2018-08-06T18:17:39.048Z,6.63
2018-08-06T18:20:10.030Z,6.10
2018-08-06T18:22:38.046Z,5.67
2018-08-06T18:25:08.379Z,5.43
2018-08-06T18:27:36.367Z,5.57
2018-08-06T18:30:06.815Z,4.90
2018-08-06T18:32:34.426Z,5.23
2018-08-06T18:35:02.163Z,5.10
2018-08-06T18:37:29.730Z,5.50
2018-08-06T18:39:57.306Z,4.50
2018-08-06T18:42:25.147Z,5.10
2018-08-06T18:44:52.974Z,5.00
2018-08-06T18:47:20.663Z,5.87
2018-08-06T18:49:48.398Z,5.00
2018-08-06T18:52:16.033Z,4.87
2018-08-06T18:54:43.612Z,4.80
2018-08-06T18:57:11.274Z,6.50
2018-08-06T18:59:38.802Z,4.97
2018-08-06T19:02:06.355Z,6.40
2018-08-06T19:04:33.979Z,5.67
2018-08-06T19:07:01.612Z,6.20
2018-08-06T19:09:29.219Z,6.30
2018-08-06T19:12:02.552Z,6.07
2018-08-06T19:14:30.146Z,6.40
2018-08-06T19:16:58.143Z,6.33
2018-08-06T19:19:27.915Z,5.77
2018-08-06T19:21:56.314Z,7.17
2018-08-06T19:24:29.755Z,6.70
2018-08-06T19:26:57.290Z,6.23
2018-08-06T19:29:24.881Z,5.70
2018-08-06T19:31:52.582Z,5.67
2018-08-06T19:34:20.334Z,5.80
2018-08-06T19:36:53.501Z,6.03
2018-08-06T19:39:21.131Z,6.33
2018-08-06T19:41:48.755Z,5.97
2018-08-06T19:44:16.494Z,5.63
2018-08-06T19:46:44.142Z,4.80
2018-08-06T19:49:17.447Z,4.80
2018-08-06T19:51:45.052Z,5.30
2018-08-06T19:54:12.632Z,5.07
2018-08-06T19:56:40.210Z,5.67
2018-08-06T19:59:09.054Z,5.50
2018-08-06T20:01:36.663Z,5.47
2018-08-06T20:04:04.478Z,5.70
2018-08-06T20:06:32.118Z,6.00
2018-08-06T20:08:59.798Z,5.37
2018-08-06T20:11:27.404Z,6.07
2018-08-06T20:14:58.343Z,6.37
2018-08-06T20:17:25.950Z,5.67
2018-08-06T20:19:53.511Z,5.20
2018-08-06T20:22:21.130Z,6.20
2018-08-06T20:24:48.835Z,5.50
2018-08-06T20:27:16.550Z,5.30
2018-08-06T20:29:44.138Z,5.63
2018-08-06T20:32:11.803Z,5.30
2018-08-06T20:34:39.422Z,5.10
2018-08-06T20:37:07.066Z,5.17
2018-08-06T20:39:34.750Z,5.60
2018-08-06T20:42:02.318Z,5.30
2018-08-06T20:44:29.907Z,5.90
2018-08-06T20:46:57.474Z,5.67
2018-08-06T20:49:25.124Z,5.80
2018-08-06T20:51:52.765Z,5.90
2018-08-06T20:54:20.422Z,5.00
2018-08-06T20:56:48.047Z,5.07
2018-08-06T20:59:15.610Z,5.03
2018-08-06T21:01:43.257Z,5.03
2018-08-06T21:04:10.862Z,5.53
2018-08-06T21:06:38.423Z,5.93
2018-08-06T21:09:07.910Z,6.10
2018-08-06T21:11:35.489Z,4.90
2018-08-06T21:14:03.195Z,5.60
2018-08-06T21:16:30.814Z,5.40
2018-08-06T21:18:58.475Z,5.20
2018-08-06T21:21:26.084Z,5.63
2018-08-06T21:23:53.691Z,5.60
2018-08-06T21:26:22.378Z,5.77
2018-08-06T21:28:50.024Z,5.03
2018-08-06T21:31:17.602Z,4.60
2018-08-06T21:33:45.238Z,4.90
2018-08-06T21:36:12.895Z,5.60
2018-08-06T21:38:40.446Z,4.87
2018-08-06T21:41:08.030Z,6.23
2018-08-06T21:43:35.614Z,5.00
2018-08-06T21:46:03.286Z,4.93
2018-08-06T21:48:30.858Z,4.70
2018-08-06T21:50:58.470Z,4.70
2018-08-06T21:53:26.154Z,4.23
2018-08-06T21:55:53.754Z,4.33
2018-08-06T21:58:21.614Z,5.10
2018-08-06T22:00:49.296Z,4.30
2018-08-06T22:03:17.741Z,4.30
2018-08-06T22:05:45.941Z,5.30
2018-08-06T22:08:13.666Z,4.80
2018-08-06T22:10:41.307Z,4.60
2018-08-06T22:13:10.208Z,4.70
2018-08-06T22:15:38.050Z,5.33
2018-08-06T22:18:06.938Z,5.63
2018-08-06T22:20:34.559Z,5.60
2018-08-06T22:23:02.251Z,4.97
2018-08-06T22:25:29.860Z,4.60
2018-08-06T22:27:57.496Z,5.40
2018-08-06T22:30:28.646Z,5.93
2018-08-06T22:32:56.327Z,5.00
2018-08-06T22:35:24.015Z,5.33
2018-08-06T22:37:51.682Z,5.60
2018-08-06T22:40:19.230Z,5.27
2018-08-06T22:42:46.838Z,6.40
2018-08-06T22:45:14.516Z,5.97
2018-08-06T22:47:42.663Z,6.90
2018-08-06T22:50:11.687Z,5.47
2018-08-06T22:52:39.630Z,5.10
2018-08-06T22:55:08.096Z,4.70
2018-08-06T22:57:35.712Z,4.53
2018-08-06T23:00:04.231Z,5.03
2018-08-06T23:02:31.886Z,5.07
2018-08-06T23:04:59.502Z,5.03
2018-08-06T23:07:27.102Z,4.97
2018-08-06T23:09:54.626Z,4.90
2018-08-06T23:12:22.254Z,5.23
2018-08-06T23:14:49.951Z,4.83
2018-08-06T23:17:17.467Z,5.33
2018-08-06T23:19:45.111Z,4.60
2018-08-06T23:22:12.646Z,4.67
2018-08-06T23:24:40.286Z,4.80
2018-08-06T23:27:08.171Z,4.70
2018-08-06T23:29:35.777Z,4.77
2018-08-06T23:32:03.679Z,4.50
2018-08-06T23:34:31.358Z,5.40
2018-08-06T23:36:58.967Z,4.87
2018-08-06T23:39:26.531Z,4.57
2018-08-06T23:41:54.167Z,4.60
2018-08-06T23:44:21.727Z,4.10
2018-08-06T23:46:52.734Z,4.90
2018-08-06T23:49:20.370Z,4.60
2018-08-06T23:51:47.954Z,4.53
2018-08-06T23:54:15.618Z,4.90
2018-08-06T23:56:43.326Z,4.73
2018-08-06T23:59:10.948Z,4.73
